createdAt,value
2018-12-06T00:02:04.057Z,2.21
2018-12-06T00:04:32.983Z,2.26
2018-12-06T00:07:01.883Z,2.22
2018-12-06T00:09:30.777Z,2.24
2018-12-06T00:11:59.686Z,2.23
2018-12-06T00:14:28.593Z,2.25
2018-12-06T00:16:57.501Z,2.31
2018-12-06T00:19:26.408Z,2.21
2018-12-06T00:21:55.326Z,2.22
2018-12-06T00:24:24.238Z,2.23
2018-12-06T00:26:53.416Z,2.26
2018-12-06T00:29:22.321Z,2.19
2018-12-06T00:34:34.452Z,2.14
2018-12-06T00:37:03.356Z,2.15
2018-12-06T00:39:32.255Z,2.18
2018-12-06T00:42:01.166Z,2.14
2018-12-06T00:44:30.061Z,2.21
2018-12-06T00:46:58.971Z,2.21
2018-12-06T00:49:27.885Z,2.23
2018-12-06T00:51:56.789Z,2.30
2018-12-06T00:54:25.702Z,2.28
2018-12-06T00:56:54.671Z,2.28
2018-12-06T00:59:23.577Z,2.24
2018-12-06T01:01:53.414Z,2.16
2018-12-06T01:04:22.563Z,2.16
2018-12-06T01:06:51.477Z,2.16
2018-12-06T01:09:20.405Z,2.19
2018-12-06T01:11:49.314Z,2.12
2018-12-06T01:14:20.279Z,2.09
2018-12-06T01:16:49.187Z,2.13
2018-12-06T01:19:18.088Z,2.15
2018-12-06T01:21:47.005Z,2.16
2018-12-06T01:24:15.910Z,2.23
2018-12-06T01:26:44.812Z,2.24
2018-12-06T01:29:13.744Z,2.23
2018-12-06T01:31:42.677Z,2.17
2018-12-06T01:34:11.574Z,2.17
2018-12-06T01:36:40.468Z,2.21
2018-12-06T01:39:09.452Z,2.21
2018-12-06T01:41:38.403Z,2.26
2018-12-06T01:44:07.301Z,2.18
2018-12-06T01:46:36.201Z,2.21
2018-12-06T01:49:05.108Z,2.22
2018-12-06T01:51:34.004Z,2.26
2018-12-06T01:54:02.896Z,2.29
2018-12-06T01:56:31.812Z,2.24
2018-12-06T01:59:00.726Z,2.22
2018-12-06T02:01:29.646Z,2.25
2018-12-06T02:03:58.542Z,2.26
2018-12-06T02:06:27.433Z,2.19
2018-12-06T02:08:56.456Z,2.20
2018-12-06T02:11:25.361Z,2.18
2018-12-06T02:13:54.261Z,2.21
2018-12-06T02:16:23.186Z,2.20
2018-12-06T02:18:52.382Z,2.10
2018-12-06T02:21:21.287Z,2.06
2018-12-06T02:23:50.268Z,2.01
2018-12-06T02:26:19.192Z,2.02
2018-12-06T02:28:48.167Z,2.02
2018-12-06T02:31:17.121Z,2.01
2018-12-06T02:33:46.037Z,2.06
2018-12-06T02:36:14.925Z,2.09
2018-12-06T02:38:43.835Z,2.11
2018-12-06T02:41:12.864Z,2.05
2018-12-06T02:43:41.777Z,1.94
2018-12-06T02:46:10.673Z,1.92
2018-12-06T02:48:39.593Z,1.90
2018-12-06T02:51:08.509Z,1.89
2018-12-06T02:53:37.426Z,1.89
2018-12-06T02:56:06.340Z,1.86
2018-12-06T02:58:35.261Z,1.89
2018-12-06T03:01:04.396Z,1.87
2018-12-06T03:03:33.376Z,1.87
2018-12-06T03:06:02.280Z,1.91
2018-12-06T03:08:31.168Z,1.94
2018-12-06T03:11:00.060Z,2.01
2018-12-06T03:13:28.990Z,1.97
2018-12-06T03:15:57.896Z,1.97
2018-12-06T03:18:26.819Z,1.99
2018-12-06T03:20:55.722Z,2.03
2018-12-06T03:23:25.238Z,2.02
2018-12-06T03:25:54.141Z,2.07
2018-12-06T03:28:23.067Z,2.07
2018-12-06T03:30:51.978Z,2.03
2018-12-06T03:33:20.918Z,2.06
2018-12-06T03:35:49.936Z,2.08
2018-12-06T03:38:18.849Z,2.08
2018-12-06T03:40:47.758Z,2.02
2018-12-06T03:43:16.668Z,2.08
2018-12-06T03:45:45.577Z,2.13
2018-12-06T03:48:14.500Z,2.11
2018-12-06T03:50:43.423Z,2.14
2018-12-06T03:53:12.330Z,2.17
2018-12-06T03:55:41.249Z,2.10
2018-12-06T03:58:10.152Z,2.12
2018-12-06T04:00:39.097Z,2.05
2018-12-06T04:03:08.174Z,2.00
2018-12-06T04:05:37.081Z,2.03
2018-12-06T04:08:05.990Z,1.97
2018-12-06T04:10:34.878Z,2.01
2018-12-06T04:13:03.818Z,2.03
2018-12-06T04:15:32.709Z,2.03
2018-12-06T04:18:01.634Z,2.08
2018-12-06T04:20:30.570Z,2.04
2018-12-06T04:22:59.497Z,2.05
2018-12-06T04:25:28.393Z,1.99
2018-12-06T04:27:57.314Z,1.93
2018-12-06T04:30:26.223Z,1.85
2018-12-06T04:32:55.129Z,1.76
2018-12-06T04:35:24.044Z,1.76
2018-12-06T04:37:53.029Z,1.74
2018-12-06T04:40:21.937Z,1.74
2018-12-06T04:42:50.831Z,1.79
2018-12-06T04:45:19.757Z,1.72
2018-12-06T04:47:48.670Z,1.72
2018-12-06T04:50:17.586Z,1.72
2018-12-06T04:52:46.483Z,1.75
2018-12-06T04:55:15.388Z,1.78
2018-12-06T04:57:44.282Z,1.81
2018-12-06T05:00:13.220Z,1.81
2018-12-06T05:02:42.142Z,1.84
2018-12-06T05:05:11.101Z,1.88
2018-12-06T05:07:39.992Z,1.92
2018-12-06T05:10:08.924Z,1.91
2018-12-06T05:12:37.818Z,1.91
2018-12-06T05:15:06.719Z,1.94
2018-12-06T05:17:35.604Z,1.89
2018-12-06T05:20:04.562Z,1.90
2018-12-06T05:22:33.474Z,1.90
2018-12-06T05:25:02.392Z,1.93
2018-12-06T05:27:31.303Z,1.93
2018-12-06T05:30:00.244Z,1.89
2018-12-06T05:32:29.144Z,1.84
2018-12-06T05:34:58.121Z,1.78
2018-12-06T05:37:27.106Z,1.75
2018-12-06T05:39:56.016Z,1.72
2018-12-06T05:42:24.941Z,1.71
2018-12-06T05:44:53.873Z,1.69
2018-12-06T05:47:22.869Z,1.69
2018-12-06T05:49:51.773Z,1.69
2018-12-06T05:52:20.683Z,1.70
2018-12-06T05:54:49.595Z,1.64
2018-12-06T05:57:18.493Z,1.54
2018-12-06T05:59:47.489Z,1.55
2018-12-06T06:02:16.401Z,1.56
2018-12-06T06:04:45.309Z,1.54
2018-12-06T06:07:14.217Z,1.54
2018-12-06T06:09:43.121Z,1.58
2018-12-06T06:12:12.024Z,1.64
2018-12-06T06:14:40.913Z,1.64
2018-12-06T06:17:09.827Z,1.76
2018-12-06T06:19:38.742Z,1.85
2018-12-06T06:22:07.722Z,1.86
2018-12-06T06:24:36.622Z,1.88
2018-12-06T06:27:05.604Z,1.84
2018-12-06T06:29:34.552Z,1.82
2018-12-06T06:32:03.470Z,1.80
2018-12-06T06:34:32.373Z,1.84
2018-12-06T06:37:01.278Z,1.85
2018-12-06T06:39:30.198Z,1.88
2018-12-06T06:41:59.096Z,1.89
2018-12-06T06:44:28.000Z,1.94
2018-12-06T06:46:56.894Z,1.97
2018-12-06T06:49:25.840Z,1.92
2018-12-06T06:51:54.754Z,1.93
2018-12-06T06:54:23.673Z,2.02
2018-12-06T06:56:52.567Z,2.07
2018-12-06T06:59:26.061Z,2.11
2018-12-06T07:01:52.448Z,2.19
2018-12-06T07:04:21.360Z,2.17
2018-12-06T07:06:50.314Z,2.20
2018-12-06T07:09:19.222Z,2.22
2018-12-06T07:11:48.154Z,2.15
2018-12-06T07:14:17.102Z,2.26
2018-12-06T07:16:46.039Z,2.31
2018-12-06T07:19:14.941Z,2.34
2018-12-06T07:21:43.869Z,2.35
2018-12-06T07:24:12.768Z,2.30
2018-12-06T07:26:41.756Z,2.24
2018-12-06T07:29:10.799Z,2.23
2018-12-06T07:31:39.701Z,2.20
2018-12-06T07:34:08.589Z,2.15
2018-12-06T07:36:37.484Z,2.14
2018-12-06T07:39:08.406Z,2.19
2018-12-06T07:41:37.309Z,2.23
2018-12-06T07:44:20.839Z,2.15
2018-12-06T07:46:49.763Z,2.26
2018-12-06T07:49:18.666Z,2.34
2018-12-06T07:51:47.583Z,2.26
2018-12-06T07:54:16.474Z,2.28
2018-12-06T07:56:45.391Z,2.35
2018-12-06T07:59:14.315Z,2.51
2018-12-06T08:01:43.510Z,2.61
2018-12-06T08:04:12.396Z,2.71
2018-12-06T08:06:41.313Z,2.75
2018-12-06T08:09:10.676Z,2.85
2018-12-06T08:11:39.570Z,2.89
2018-12-06T08:14:08.507Z,2.85
2018-12-06T08:16:37.496Z,2.85
2018-12-06T08:19:06.397Z,2.91
2018-12-06T08:21:35.310Z,3.03
2018-12-06T08:24:04.262Z,3.07
2018-12-06T08:26:33.182Z,2.97
2018-12-06T08:29:02.099Z,3.01
2018-12-06T08:31:31.993Z,3.04
2018-12-06T08:34:06.129Z,3.05
2018-12-06T08:36:31.900Z,2.97
2018-12-06T08:39:00.831Z,2.97
2018-12-06T08:41:29.754Z,3.02
2018-12-06T08:43:58.694Z,3.04
2018-12-06T08:46:27.662Z,3.13
2018-12-06T08:49:02.832Z,3.20
2018-12-06T08:51:27.621Z,3.29
2018-12-06T08:53:56.513Z,3.25
2018-12-06T08:56:25.432Z,3.33
2018-12-06T08:58:54.351Z,3.33
2018-12-06T09:01:23.259Z,3.30
2018-12-06T09:03:52.161Z,3.42
2018-12-06T09:06:21.434Z,3.47
2018-12-06T09:08:50.425Z,3.59
2018-12-06T09:11:19.790Z,3.59
2018-12-06T09:13:48.788Z,3.56
2018-12-06T09:16:18.219Z,3.72
2018-12-06T09:18:47.587Z,3.72
2018-12-06T09:21:16.541Z,3.87
2018-12-06T09:23:45.686Z,3.84
2018-12-06T09:26:20.881Z,3.89
2018-12-06T09:28:49.782Z,4.01
2018-12-06T09:31:19.268Z,4.15
2018-12-06T09:34:06.277Z,4.19
2018-12-06T09:36:35.940Z,4.14
2018-12-06T09:39:07.100Z,4.15
2018-12-06T09:41:37.924Z,4.15
2018-12-06T09:44:06.883Z,4.17
2018-12-06T09:46:35.804Z,4.15
2018-12-06T09:49:06.966Z,4.05
2018-12-06T09:51:35.895Z,4.12
2018-12-06T09:54:04.846Z,4.25
2018-12-06T09:56:33.742Z,4.27
2018-12-06T09:59:02.680Z,4.24
2018-12-06T10:01:31.619Z,4.35
2018-12-06T10:04:00.528Z,4.42
2018-12-06T10:06:29.451Z,4.38
2018-12-06T10:08:58.362Z,4.45
2018-12-06T10:11:27.894Z,4.59
2018-12-06T10:13:56.803Z,4.74
2018-12-06T10:16:25.710Z,4.88
2018-12-06T10:18:54.657Z,5.11
2018-12-06T10:21:23.660Z,5.13
2018-12-06T10:23:54.702Z,5.16
2018-12-06T10:26:23.615Z,5.29
2018-12-06T10:28:52.516Z,5.38
2018-12-06T10:31:21.417Z,5.45
2018-12-06T10:33:50.375Z,5.44
2018-12-06T10:36:19.283Z,5.43
2018-12-06T10:38:48.165Z,5.29
2018-12-06T10:41:17.071Z,5.31
2018-12-06T10:43:45.963Z,5.37
2018-12-06T10:46:14.872Z,5.34
2018-12-06T10:48:43.765Z,5.33
2018-12-06T10:51:23.597Z,5.36
2018-12-06T10:53:52.506Z,5.37
2018-12-06T10:56:21.437Z,5.37
2018-12-06T10:58:50.350Z,5.34
2018-12-06T11:01:21.668Z,5.36
2018-12-06T11:03:59.517Z,5.42
2018-12-06T11:06:28.480Z,5.58
2018-12-06T11:08:57.386Z,5.74
2018-12-06T11:11:26.547Z,5.87
2018-12-06T11:13:55.568Z,5.96
2018-12-06T11:16:24.505Z,5.96
2018-12-06T11:18:53.401Z,5.99
2018-12-06T11:21:22.323Z,6.03
2018-12-06T11:23:51.243Z,5.99
2018-12-06T11:26:20.176Z,5.96
2018-12-06T11:28:49.093Z,5.90
2018-12-06T11:31:17.998Z,5.78
2018-12-06T11:33:46.989Z,5.67
2018-12-06T11:36:15.904Z,5.50
2018-12-06T11:38:44.792Z,5.45
2018-12-06T11:41:13.714Z,5.44
2018-12-06T11:43:42.630Z,5.39
2018-12-06T11:46:11.541Z,5.53
2018-12-06T11:48:40.455Z,5.70
2018-12-06T11:51:09.382Z,5.82
2018-12-06T11:53:38.294Z,5.84
2018-12-06T11:56:07.211Z,5.78
2018-12-06T11:58:36.105Z,5.70
2018-12-06T12:01:05.060Z,5.82
2018-12-06T12:03:34.069Z,5.93
2018-12-06T12:06:03.027Z,5.89
2018-12-06T12:08:31.924Z,5.68
2018-12-06T12:11:00.829Z,5.72
2018-12-06T12:13:29.712Z,5.80
2018-12-06T12:15:58.639Z,5.88
2018-12-06T12:18:27.553Z,5.88
2018-12-06T12:20:56.489Z,5.92
2018-12-06T12:23:25.421Z,5.90
2018-12-06T12:25:54.330Z,5.75
2018-12-06T12:28:23.225Z,5.72
2018-12-06T12:30:52.116Z,5.78
2018-12-06T12:33:21.010Z,5.72
2018-12-06T12:35:49.926Z,5.45
2018-12-06T12:38:18.842Z,5.50
2018-12-06T12:40:47.766Z,5.58
2018-12-06T12:43:16.673Z,5.64
2018-12-06T12:45:45.594Z,5.69
2018-12-06T12:48:14.509Z,5.66
2018-12-06T12:50:43.422Z,5.67
2018-12-06T12:53:12.323Z,5.64
2018-12-06T12:55:41.238Z,5.55
2018-12-06T12:58:10.145Z,5.55
2018-12-06T13:00:39.071Z,5.38
2018-12-06T13:03:07.974Z,5.31
2018-12-06T13:05:36.878Z,5.31
2018-12-06T13:08:05.785Z,5.28
2018-12-06T13:10:34.706Z,5.26
2018-12-06T13:13:03.610Z,5.19
2018-12-06T13:15:32.520Z,5.13
2018-12-06T13:18:01.425Z,5.10
2018-12-06T13:20:30.334Z,5.06
2018-12-06T13:22:59.234Z,5.01
2018-12-06T13:25:28.128Z,4.95
2018-12-06T13:27:57.034Z,4.91
2018-12-06T13:30:25.940Z,4.84
2018-12-06T13:32:54.858Z,4.80
2018-12-06T13:35:23.783Z,4.74
2018-12-06T13:37:52.698Z,4.62
2018-12-06T13:40:21.625Z,4.58
2018-12-06T13:42:50.538Z,4.54
2018-12-06T13:45:19.445Z,4.52
2018-12-06T13:47:48.349Z,4.46
2018-12-06T13:50:17.280Z,4.41
2018-12-06T13:52:46.181Z,4.40
2018-12-06T13:55:15.101Z,4.34
2018-12-06T13:57:44.022Z,4.24
2018-12-06T14:00:12.940Z,4.18
2018-12-06T14:02:41.844Z,4.15
2018-12-06T14:05:10.756Z,4.11
2018-12-06T14:07:39.669Z,4.06
2018-12-06T14:10:08.579Z,3.97
2018-12-06T14:12:38.014Z,3.94
2018-12-06T14:15:06.938Z,3.85
2018-12-06T14:17:35.844Z,3.82
2018-12-06T14:20:05.231Z,3.79
2018-12-06T14:22:34.140Z,3.72
2018-12-06T14:25:03.062Z,3.62
2018-12-06T14:27:31.980Z,3.53
2018-12-06T14:30:00.891Z,3.49
2018-12-06T14:32:29.814Z,3.44
2018-12-06T14:34:58.717Z,3.42
2018-12-06T14:37:27.623Z,3.37
2018-12-06T14:39:56.534Z,3.29
2018-12-06T14:42:25.433Z,3.20
2018-12-06T14:44:54.339Z,3.15
2018-12-06T14:47:23.250Z,3.07
2018-12-06T14:49:52.154Z,3.03
2018-12-06T14:52:21.062Z,2.98
2018-12-06T14:54:49.953Z,2.99
2018-12-06T14:57:18.882Z,2.99
2018-12-06T14:59:47.794Z,2.97
2018-12-06T15:02:16.712Z,2.96
2018-12-06T15:04:45.603Z,2.91
2018-12-06T15:07:14.517Z,2.92
2018-12-06T15:09:43.414Z,2.91
2018-12-06T15:12:12.325Z,2.89
2018-12-06T15:14:41.213Z,2.81
2018-12-06T15:17:10.138Z,2.77
2018-12-06T15:19:39.038Z,2.68
2018-12-06T15:22:07.970Z,2.67
2018-12-06T15:24:36.912Z,2.68
2018-12-06T15:27:05.809Z,2.63
2018-12-06T15:29:34.750Z,2.69
2018-12-06T15:32:03.675Z,2.65
2018-12-06T15:34:32.565Z,2.65
2018-12-06T15:37:01.512Z,2.62
2018-12-06T15:39:30.419Z,2.57
2018-12-06T15:41:59.340Z,2.63
2018-12-06T15:44:28.241Z,2.66
2018-12-06T15:46:57.144Z,2.66
2018-12-06T15:49:26.037Z,2.64
2018-12-06T15:51:54.951Z,2.64
2018-12-06T15:54:23.853Z,2.62
2018-12-06T15:56:52.805Z,2.59
2018-12-06T15:59:21.709Z,2.52
2018-12-06T16:01:50.727Z,2.47
2018-12-06T16:04:19.621Z,2.42
2018-12-06T16:06:48.542Z,2.44
2018-12-06T16:09:17.506Z,2.42
2018-12-06T16:11:46.401Z,2.44
2018-12-06T16:14:15.307Z,2.45
2018-12-06T16:16:44.225Z,2.45
2018-12-06T16:19:13.141Z,2.47
2018-12-06T16:21:42.072Z,2.46
2018-12-06T16:24:10.975Z,2.47
2018-12-06T16:26:39.896Z,2.48
2018-12-06T16:29:08.791Z,2.50
2018-12-06T16:31:37.697Z,2.49
2018-12-06T16:34:06.628Z,2.51
2018-12-06T16:36:35.556Z,2.50
2018-12-06T16:39:05.884Z,2.49
2018-12-06T16:41:34.791Z,2.48
2018-12-06T16:44:04.173Z,2.49
2018-12-06T16:46:33.121Z,2.47
2018-12-06T16:49:09.854Z,2.49
2018-12-06T16:51:33.339Z,2.50
2018-12-06T16:54:02.319Z,2.43
2018-12-06T16:56:31.228Z,2.46
2018-12-06T16:59:00.116Z,2.46
2018-12-06T17:02:31.981Z,2.44
2018-12-06T17:05:01.458Z,2.38
2018-12-06T17:07:30.370Z,2.32
2018-12-06T17:09:59.272Z,2.34
2018-12-06T17:12:29.299Z,2.29
2018-12-06T17:14:58.202Z,2.27
2018-12-06T17:17:27.114Z,2.28
2018-12-06T17:19:56.055Z,2.24
2018-12-06T17:22:24.957Z,2.18
2018-12-06T17:24:53.869Z,2.19
2018-12-06T17:27:22.790Z,2.15
2018-12-06T17:29:51.878Z,2.11
2018-12-06T17:32:20.996Z,2.13
2018-12-06T17:34:49.909Z,2.15
2018-12-06T17:37:18.858Z,2.15
2018-12-06T17:39:47.800Z,2.16
2018-12-06T17:42:16.768Z,2.16
2018-12-06T17:44:45.700Z,2.16
2018-12-06T17:47:14.665Z,2.20
2018-12-06T17:49:43.585Z,2.23
2018-12-06T17:52:12.501Z,2.20
2018-12-06T17:54:41.406Z,2.22
2018-12-06T17:57:10.346Z,2.22
2018-12-06T17:59:39.280Z,2.18
2018-12-06T18:02:08.242Z,2.21
2018-12-06T18:04:37.195Z,2.19
2018-12-06T18:07:06.094Z,2.15
2018-12-06T18:09:34.997Z,2.11
2018-12-06T18:12:03.929Z,2.08
2018-12-06T18:14:32.878Z,2.06
2018-12-06T18:17:01.795Z,2.04
2018-12-06T18:19:30.735Z,2.03
2018-12-06T18:22:01.293Z,2.03
2018-12-06T18:24:30.586Z,2.06
2018-12-06T18:26:59.587Z,2.09
2018-12-06T18:29:28.574Z,2.06
2018-12-06T18:31:57.473Z,2.09
2018-12-06T18:34:26.426Z,2.07
2018-12-06T18:36:55.328Z,2.05
2018-12-06T18:39:24.238Z,2.03
2018-12-06T18:41:53.186Z,2.02
2018-12-06T18:44:22.105Z,2.01
2018-12-06T18:46:51.069Z,1.99
2018-12-06T18:49:20.056Z,2.00
2018-12-06T18:51:48.989Z,2.00
2018-12-06T18:54:17.885Z,2.00
2018-12-06T18:56:46.797Z,2.00
2018-12-06T18:59:15.708Z,1.99
2018-12-06T19:01:44.621Z,2.02
2018-12-06T19:04:13.627Z,2.00
2018-12-06T19:06:44.895Z,1.96
2018-12-06T19:09:14.038Z,1.87
2018-12-06T19:12:14.385Z,1.80
2018-12-06T19:14:43.282Z,1.68
2018-12-06T19:17:12.198Z,1.57
2018-12-06T19:19:41.135Z,1.40
2018-12-06T19:22:10.067Z,1.21
2018-12-06T19:24:38.987Z,1.02
2018-12-06T19:27:07.942Z,0.87
2018-12-06T19:29:36.883Z,0.68
2018-12-06T19:32:05.889Z,0.51
2018-12-06T19:34:35.090Z,0.38
2018-12-06T19:37:04.006Z,0.28
2018-12-06T19:39:32.944Z,0.25
2018-12-06T19:42:01.859Z,0.23
2018-12-06T19:44:30.835Z,0.26
2018-12-06T19:46:59.815Z,0.18
2018-12-06T19:49:28.819Z,0.14
2018-12-06T19:51:57.733Z,0.19
2018-12-06T19:54:26.655Z,0.18
2018-12-06T19:56:55.593Z,0.14
2018-12-06T19:59:24.518Z,0.07
2018-12-06T20:01:53.436Z,0.07
2018-12-06T20:04:22.388Z,0.00
2018-12-06T20:06:51.296Z,-0.06
2018-12-06T20:09:20.221Z,-0.11
2018-12-06T20:11:49.224Z,-0.12
2018-12-06T20:14:18.154Z,-0.16
2018-12-06T20:16:47.174Z,-0.22
2018-12-06T20:19:16.107Z,-0.26
2018-12-06T20:21:45.053Z,-0.31
2018-12-06T20:24:13.986Z,-0.32
2018-12-06T20:26:42.990Z,-0.40
2018-12-06T20:29:11.953Z,-0.38
2018-12-06T20:31:40.898Z,-0.51
2018-12-06T20:34:09.847Z,-0.63
2018-12-06T20:36:38.815Z,-0.56
2018-12-06T20:39:08.377Z,-0.46
2018-12-06T20:41:37.381Z,-0.35
2018-12-06T20:44:06.349Z,-0.23
2018-12-06T20:46:35.260Z,-0.15
2018-12-06T20:49:04.183Z,-0.05
2018-12-06T20:51:33.480Z,0.03
2018-12-06T20:54:02.554Z,0.13
2018-12-06T20:56:31.473Z,0.22
2018-12-06T20:59:00.382Z,0.31
2018-12-06T21:01:29.292Z,0.36
2018-12-06T21:03:58.312Z,0.43
2018-12-06T21:06:27.258Z,0.49
2018-12-06T21:08:56.193Z,0.55
2018-12-06T21:11:25.109Z,0.60
2018-12-06T21:13:54.025Z,0.63
2018-12-06T21:16:22.934Z,0.70
2018-12-06T21:18:51.852Z,0.71
2018-12-06T21:21:20.750Z,0.69
2018-12-06T21:23:49.668Z,0.64
2018-12-06T21:26:18.573Z,0.57
2018-12-06T21:28:47.489Z,0.53
2018-12-06T21:31:16.394Z,0.43
2018-12-06T21:33:45.292Z,0.32
2018-12-06T21:36:14.204Z,0.06
2018-12-06T21:38:43.134Z,-0.07
2018-12-06T21:41:12.073Z,-0.20
2018-12-06T21:43:40.992Z,-0.23
2018-12-06T21:46:09.945Z,-0.29
2018-12-06T21:48:38.887Z,-0.27
2018-12-06T21:51:07.800Z,-0.26
2018-12-06T21:53:36.714Z,-0.29
2018-12-06T21:56:05.645Z,-0.27
2018-12-06T21:58:34.578Z,-0.24
2018-12-06T22:01:03.497Z,-0.24
2018-12-06T22:03:32.433Z,-0.19
2018-12-06T22:06:01.361Z,-0.19
2018-12-06T22:08:30.290Z,-0.18
2018-12-06T22:10:59.202Z,-0.21
2018-12-06T22:13:28.101Z,-0.16
2018-12-06T22:15:56.996Z,-0.13
2018-12-06T22:18:25.962Z,-0.14
2018-12-06T22:20:56.361Z,-0.13
2018-12-06T22:23:25.485Z,-0.15
2018-12-06T22:25:54.396Z,-0.12
2018-12-06T22:28:23.377Z,-0.11
2018-12-06T22:30:52.281Z,-0.13
2018-12-06T22:33:21.248Z,-0.10
2018-12-06T22:35:50.154Z,-0.08
2018-12-06T22:38:19.045Z,-0.10
2018-12-06T22:40:47.969Z,-0.12
2018-12-06T22:43:16.874Z,-0.13
2018-12-06T22:46:01.213Z,-0.11
2018-12-06T22:48:30.187Z,-0.13
2018-12-06T22:50:59.137Z,-0.13
2018-12-06T22:53:28.043Z,-0.17
2018-12-06T22:55:57.004Z,-0.24
2018-12-06T22:58:25.910Z,-0.30
2018-12-06T23:00:56.947Z,-0.39
2018-12-06T23:03:26.933Z,-0.58
2018-12-06T23:05:55.894Z,-0.54
2018-12-06T23:08:24.803Z,-0.55
2018-12-06T23:10:53.730Z,-0.59
2018-12-06T23:13:22.642Z,-0.64
2018-12-06T23:15:51.551Z,-0.65
2018-12-06T23:18:20.481Z,-0.63
2018-12-06T23:20:49.400Z,-0.65
2018-12-06T23:23:18.497Z,-0.73
2018-12-06T23:25:47.396Z,-0.80
2018-12-06T23:28:16.317Z,-0.91
2018-12-06T23:30:45.223Z,-1.02
2018-12-06T23:33:14.137Z,-1.06
2018-12-06T23:35:43.058Z,-1.11
2018-12-06T23:38:11.979Z,-1.18
2018-12-06T23:40:40.909Z,-1.25
2018-12-06T23:43:09.962Z,-1.32
2018-12-06T23:45:38.875Z,-1.35
2018-12-06T23:48:07.792Z,-1.38
2018-12-06T23:50:36.716Z,-1.45
2018-12-06T23:53:05.630Z,-1.47
2018-12-06T23:55:34.529Z,-1.52
2018-12-06T23:58:03.434Z,-1.58
